Terminal Aerodrome Forecast
Issued by NWS

Home | Current Version | Previous Version | Text Only | Print | Product List | Glossary On
Versions: 1 2 3 4 5 6 7 8 9 10 11 12 13
000
FTUS43 KMQT 190429 AAA
TAFSAW
TAF AMD
KSAW 190429Z 1904/1924 28013G20KT P6SM FEW150
     FM190600 26008G14KT P6SM SKC
     FM191600 27012KT P6SM FEW250
     FM192200 25009KT P6SM SKC=

USA.gov is the U.S. government's official web portal to all federal, state and local government web resources and services.